sensor_id;sensor_type;location;lat;lon;timestamp;pressure;altitude;pressure_sealevel;temperature;humidity
53514;BME280;39768;54.148;12.174;2023-01-28T00:03:08;102804.66;;;4.47;96.01
53514;BME280;39768;54.148;12.174;2023-01-28T00:07:09;102804.19;;;4.37;96.38
53514;BME280;39768;54.148;12.174;2023-01-28T00:11:12;102809.38;;;4.35;97.99
53514;BME280;39768;54.148;12.174;2023-01-28T00:15:13;102794.44;;;4.34;98.40
53514;BME280;39768;54.148;12.174;2023-01-28T00:19:16;102802.41;;;4.36;97.45
53514;BME280;39768;54.148;12.174;2023-01-28T00:23:17;102805.50;;;4.46;97.20
53514;BME280;39768;54.148;12.174;2023-01-28T00:27:19;102802.31;;;4.34;98.99
53514;BME280;39768;54.148;12.174;2023-01-28T00:31:25;102805.38;;;4.43;99.18
53514;BME280;39768;54.148;12.174;2023-01-28T00:35:27;102813.81;;;4.36;100.00
53514;BME280;39768;54.148;12.174;2023-01-28T00:39:30;102804.81;;;4.31;99.99
53514;BME280;39768;54.148;12.174;2023-01-28T00:43:35;102803.31;;;3.98;99.89
53514;BME280;39768;54.148;12.174;2023-01-28T00:47:37;102795.84;;;4.07;96.05
53514;BME280;39768;54.148;12.174;2023-01-28T00:51:39;102779.41;;;4.51;85.59
53514;BME280;39768;54.148;12.174;2023-01-28T00:55:40;102786.84;;;4.40;77.37
53514;BME280;39768;54.148;12.174;2023-01-28T00:59:42;102787.44;;;4.54;76.31
53514;BME280;39768;54.148;12.174;2023-01-28T01:03:44;102785.84;;;4.57;79.31
53514;BME280;39768;54.148;12.174;2023-01-28T01:07:45;102788.78;;;4.06;82.78
53514;BME280;39768;54.148;12.174;2023-01-28T01:11:47;102795.94;;;4.48;83.63
53514;BME280;39768;54.148;12.174;2023-01-28T01:15:48;102794.41;;;4.53;86.20
53514;BME280;39768;54.148;12.174;2023-01-28T01:19:50;102788.03;;;4.68;86.45
53514;BME280;39768;54.148;12.174;2023-01-28T01:23:52;102788.13;;;4.50;88.25
53514;BME280;39768;54.148;12.174;2023-01-28T01:27:55;102783.91;;;4.53;86.32
53514;BME280;39768;54.148;12.174;2023-01-28T01:31:59;102785.16;;;4.42;85.68
53514;BME280;39768;54.148;12.174;2023-01-28T01:36:01;102780.53;;;4.37;87.33
53514;BME280;39768;54.148;12.174;2023-01-28T01:40:04;102777.38;;;4.24;86.85
53514;BME280;39768;54.148;12.174;2023-01-28T01:44:06;102776.75;;;4.11;86.53
53514;BME280;39768;54.148;12.174;2023-01-28T01:48:20;102770.81;;;4.15;87.84
53514;BME280;39768;54.148;12.174;2023-01-28T01:52:26;102766.63;;;4.01;89.97
53514;BME280;39768;54.148;12.174;2023-01-28T01:56:34;102762.22;;;4.00;87.82
53514;BME280;39768;54.148;12.174;2023-01-28T02:00:39;102769.34;;;4.21;84.87
53514;BME280;39768;54.148;12.174;2023-01-28T02:04:43;102761.19;;;4.15;82.29
53514;BME280;39768;54.148;12.174;2023-01-28T02:08:48;102764.72;;;3.97;83.30
53514;BME280;39768;54.148;12.174;2023-01-28T02:12:55;102765.59;;;4.36;82.89
53514;BME280;39768;54.148;12.174;2023-01-28T02:17:00;102754.28;;;4.57;80.40
53514;BME280;39768;54.148;12.174;2023-01-28T02:30:02;102762.94;;;4.36;83.53
53514;BME280;39768;54.148;12.174;2023-01-28T02:34:28;102749.47;;;4.28;84.46
53514;BME280;39768;54.148;12.174;2023-01-28T02:38:36;102745.84;;;4.45;84.57
53514;BME280;39768;54.148;12.174;2023-01-28T02:42:41;102746.19;;;4.53;83.32
53514;BME280;39768;54.148;12.174;2023-01-28T02:46:42;102731.28;;;4.53;82.86
53514;BME280;39768;54.148;12.174;2023-01-28T02:51:27;102734.00;;;4.55;82.72
53514;BME280;39768;54.148;12.174;2023-01-28T02:55:38;102729.50;;;4.52;83.34
53514;BME280;39768;54.148;12.174;2023-01-28T03:04:19;102733.44;;;3.64;90.94
53514;BME280;39768;54.148;12.174;2023-01-28T03:08:24;102728.06;;;3.80;89.38
53514;BME280;39768;54.148;12.174;2023-01-28T03:12:44;102738.91;;;4.47;86.60
53514;BME280;39768;54.148;12.174;2023-01-28T03:17:36;102728.81;;;4.56;87.15
53514;BME280;39768;54.148;12.174;2023-01-28T03:21:58;102729.56;;;4.54;85.73
53514;BME280;39768;54.148;12.174;2023-01-28T03:26:22;102731.38;;;4.55;85.75
53514;BME280;39768;54.148;12.174;2023-01-28T03:30:48;102731.44;;;4.56;85.38
53514;BME280;39768;54.148;12.174;2023-01-28T03:35:21;102734.00;;;4.55;86.75
53514;BME280;39768;54.148;12.174;2023-01-28T03:39:43;102739.06;;;4.50;86.87
53514;BME280;39768;54.148;12.174;2023-01-28T03:43:45;102738.75;;;4.04;90.94
53514;BME280;39768;54.148;12.174;2023-01-28T03:47:46;102731.50;;;4.18;91.89
53514;BME280;39768;54.148;12.174;2023-01-28T03:51:49;102742.03;;;3.99;90.49
53514;BME280;39768;54.148;12.174;2023-01-28T03:55:52;102747.41;;;4.02;89.50
53514;BME280;39768;54.148;12.174;2023-01-28T03:59:54;102753.16;;;4.12;92.02
53514;BME280;39768;54.148;12.174;2023-01-28T04:03:56;102746.22;;;3.76;96.52
53514;BME280;39768;54.148;12.174;2023-01-28T04:08:00;102754.97;;;3.94;96.71
53514;BME280;39768;54.148;12.174;2023-01-28T04:12:11;102751.03;;;3.84;98.79
53514;BME280;39768;54.148;12.174;2023-01-28T04:16:19;102754.16;;;3.58;100.00
53514;BME280;39768;54.148;12.174;2023-01-28T04:20:21;102751.88;;;2.75;100.00
53514;BME280;39768;54.148;12.174;2023-01-28T04:24:23;102755.44;;;3.11;100.00
53514;BME280;39768;54.148;12.174;2023-01-28T04:28:25;102739.44;;;3.62;100.00
53514;BME280;39768;54.148;12.174;2023-01-28T04:32:26;102738.97;;;3.89;100.00
53514;BME280;39768;54.148;12.174;2023-01-28T04:36:37;102739.13;;;3.93;99.51
53514;BME280;39768;54.148;12.174;2023-01-28T04:40:52;102726.13;;;3.96;98.28
53514;BME280;39768;54.148;12.174;2023-01-28T04:45:00;102722.38;;;3.90;96.93
53514;BME280;39768;54.148;12.174;2023-01-28T04:49:20;102726.13;;;3.96;95.86
53514;BME280;39768;54.148;12.174;2023-01-28T04:53:25;102736.41;;;3.91;95.17
53514;BME280;39768;54.148;12.174;2023-01-28T04:57:31;102723.16;;;3.69;92.57
53514;BME280;39768;54.148;12.174;2023-01-28T05:01:33;102733.31;;;3.80;92.91
53514;BME280;39768;54.148;12.174;2023-01-28T05:05:35;102733.16;;;3.77;91.62
53514;BME280;39768;54.148;12.174;2023-01-28T05:09:51;102727.16;;;3.80;91.00
53514;BME280;39768;54.148;12.174;2023-01-28T05:13:53;102722.25;;;3.68;89.39
53514;BME280;39768;54.148;12.174;2023-01-28T05:17:55;102719.91;;;3.55;88.60
53514;BME280;39768;54.148;12.174;2023-01-28T05:21:58;102738.28;;;3.55;88.30
53514;BME280;39768;54.148;12.174;2023-01-28T05:26:09;102739.63;;;3.47;87.94
53514;BME280;39768;54.148;12.174;2023-01-28T05:30:10;102722.03;;;3.64;86.32
53514;BME280;39768;54.148;12.174;2023-01-28T05:34:12;102728.34;;;3.67;84.74
53514;BME280;39768;54.148;12.174;2023-01-28T05:38:14;102719.22;;;3.78;84.56
53514;BME280;39768;54.148;12.174;2023-01-28T05:42:16;102706.06;;;3.78;84.28
53514;BME280;39768;54.148;12.174;2023-01-28T05:46:21;102706.91;;;3.77;84.85
53514;BME280;39768;54.148;12.174;2023-01-28T05:50:36;102708.38;;;3.34;88.92
53514;BME280;39768;54.148;12.174;2023-01-28T05:54:51;102690.41;;;3.24;90.79
53514;BME280;39768;54.148;12.174;2023-01-28T05:58:52;102693.03;;;3.06;92.19
53514;BME280;39768;54.148;12.174;2023-01-28T06:02:54;102694.44;;;3.35;92.07
53514;BME280;39768;54.148;12.174;2023-01-28T06:06:57;102700.19;;;3.28;91.92
53514;BME280;39768;54.148;12.174;2023-01-28T06:11:00;102690.31;;;3.40;92.98
53514;BME280;39768;54.148;12.174;2023-01-28T06:15:06;102700.38;;;3.50;91.00
53514;BME280;39768;54.148;12.174;2023-01-28T06:19:32;102687.75;;;3.61;93.27
53514;BME280;39768;54.148;12.174;2023-01-28T06:23:33;102688.91;;;4.06;91.67
53514;BME280;39768;54.148;12.174;2023-01-28T06:27:36;102702.88;;;4.05;92.18
53514;BME280;39768;54.148;12.174;2023-01-28T06:31:38;102683.63;;;4.25;91.69
53514;BME280;39768;54.148;12.174;2023-01-28T06:35:39;102686.28;;;4.06;93.60
53514;BME280;39768;54.148;12.174;2023-01-28T06:39:41;102688.44;;;4.14;91.18
53514;BME280;39768;54.148;12.174;2023-01-28T06:43:42;102687.97;;;4.24;91.72
53514;BME280;39768;54.148;12.174;2023-01-28T06:47:44;102694.22;;;4.07;93.08
53514;BME280;39768;54.148;12.174;2023-01-28T06:51:45;102704.28;;;3.77;95.91
53514;BME280;39768;54.148;12.174;2023-01-28T06:55:47;102704.59;;;4.23;93.02
53514;BME280;39768;54.148;12.174;2023-01-28T06:59:49;102710.59;;;4.21;92.63
53514;BME280;39768;54.148;12.174;2023-01-28T07:03:50;102723.19;;;4.28;92.12
53514;BME280;39768;54.148;12.174;2023-01-28T07:07:52;102717.13;;;3.90;93.29
53514;BME280;39768;54.148;12.174;2023-01-28T07:11:54;102718.50;;;4.21;91.96
53514;BME280;39768;54.148;12.174;2023-01-28T07:15:55;102724.66;;;4.21;92.03
53514;BME280;39768;54.148;12.174;2023-01-28T07:19:57;102717.50;;;4.19;91.81
53514;BME280;39768;54.148;12.174;2023-01-28T07:23:58;102732.31;;;4.17;91.58
53514;BME280;39768;54.148;12.174;2023-01-28T07:28:00;102735.09;;;4.20;91.75
53514;BME280;39768;54.148;12.174;2023-01-28T07:32:01;102736.44;;;4.10;93.72
53514;BME280;39768;54.148;12.174;2023-01-28T07:36:06;102742.22;;;4.22;93.35
53514;BME280;39768;54.148;12.174;2023-01-28T07:40:08;102737.31;;;4.30;93.31
53514;BME280;39768;54.148;12.174;2023-01-28T07:44:10;102737.50;;;4.35;94.13
53514;BME280;39768;54.148;12.174;2023-01-28T07:48:12;102750.09;;;4.42;95.69
53514;BME280;39768;54.148;12.174;2023-01-28T07:52:16;102745.28;;;4.52;96.38
53514;BME280;39768;54.148;12.174;2023-01-28T07:56:18;102741.75;;;4.52;98.59
53514;BME280;39768;54.148;12.174;2023-01-28T08:00:21;102756.19;;;4.61;99.58
53514;BME280;39768;54.148;12.174;2023-01-28T08:04:23;102757.41;;;4.70;100.00
53514;BME280;39768;54.148;12.174;2023-01-28T08:08:25;102760.22;;;4.53;100.00
53514;BME280;39768;54.148;12.174;2023-01-28T08:12:29;102767.59;;;4.62;100.00
53514;BME280;39768;54.148;12.174;2023-01-28T08:16:31;102776.22;;;4.58;100.00
53514;BME280;39768;54.148;12.174;2023-01-28T08:20:33;102778.25;;;4.44;100.00
53514;BME280;39768;54.148;12.174;2023-01-28T08:24:34;102779.47;;;4.52;100.00
53514;BME280;39768;54.148;12.174;2023-01-28T08:28:36;102777.22;;;4.41;100.00
53514;BME280;39768;54.148;12.174;2023-01-28T08:32:37;102776.31;;;4.40;100.00
53514;BME280;39768;54.148;12.174;2023-01-28T08:36:39;102778.28;;;4.46;100.00
53514;BME280;39768;54.148;12.174;2023-01-28T08:40:40;102770.47;;;4.47;100.00
53514;BME280;39768;54.148;12.174;2023-01-28T08:44:42;102782.50;;;4.61;100.00
53514;BME280;39768;54.148;12.174;2023-01-28T08:48:43;102791.88;;;4.55;100.00
53514;BME280;39768;54.148;12.174;2023-01-28T08:52:46;102789.09;;;4.33;100.00
53514;BME280;39768;54.148;12.174;2023-01-28T08:56:51;102792.03;;;4.19;99.98
53514;BME280;39768;54.148;12.174;2023-01-28T09:00:52;102807.03;;;4.22;99.08
53514;BME280;39768;54.148;12.174;2023-01-28T09:04:54;102809.81;;;4.25;98.72
53514;BME280;39768;54.148;12.174;2023-01-28T09:08:56;102811.25;;;4.18;98.98
53514;BME280;39768;54.148;12.174;2023-01-28T09:12:58;102812.78;;;4.13;98.76
53514;BME280;39768;54.148;12.174;2023-01-28T09:16:59;102826.06;;;4.36;99.12
53514;BME280;39768;54.148;12.174;2023-01-28T09:21:03;102825.22;;;4.17;97.95
53514;BME280;39768;54.148;12.174;2023-01-28T09:25:06;102837.91;;;4.26;96.87
53514;BME280;39768;54.148;12.174;2023-01-28T09:29:08;102842.03;;;4.21;96.49
53514;BME280;39768;54.148;12.174;2023-01-28T09:33:09;102844.84;;;4.43;95.80
53514;BME280;39768;54.148;12.174;2023-01-28T09:37:11;102833.69;;;4.30;93.73
53514;BME280;39768;54.148;12.174;2023-01-28T09:41:24;102845.38;;;4.36;95.28
53514;BME280;39768;54.148;12.174;2023-01-28T09:45:38;102840.88;;;4.34;93.77
53514;BME280;39768;54.148;12.174;2023-01-28T09:49:45;102840.09;;;4.55;93.06
53514;BME280;39768;54.148;12.174;2023-01-28T09:53:51;102835.53;;;4.32;92.39
53514;BME280;39768;54.148;12.174;2023-01-28T09:57:55;102837.13;;;4.48;92.65
53514;BME280;39768;54.148;12.174;2023-01-28T10:10:56;102816.44;;;4.76;89.12
53514;BME280;39768;54.148;12.174;2023-01-28T10:15:42;102805.94;;;4.97;88.43
53514;BME280;39768;54.148;12.174;2023-01-28T10:19:52;102806.53;;;5.11;88.26
53514;BME280;39768;54.148;12.174;2023-01-28T10:24:00;102803.97;;;5.12;86.23
53514;BME280;39768;54.148;12.174;2023-01-28T10:28:13;102781.16;;;4.92;84.35
53514;BME280;39768;54.148;12.174;2023-01-28T10:32:32;102786.28;;;5.30;82.27
53514;BME280;39768;54.148;12.174;2023-01-28T10:36:34;102781.31;;;5.38;80.92
53514;BME280;39768;54.148;12.174;2023-01-28T10:40:36;102778.88;;;5.43;78.79
53514;BME280;39768;54.148;12.174;2023-01-28T10:44:41;102765.34;;;5.56;78.59
53514;BME280;39768;54.148;12.174;2023-01-28T10:48:52;102755.00;;;5.60;76.48
53514;BME280;39768;54.148;12.174;2023-01-28T10:52:57;102779.44;;;5.36;75.71
53514;BME280;39768;54.148;12.174;2023-01-28T10:57:02;102763.94;;;5.21;77.28
53514;BME280;39768;54.148;12.174;2023-01-28T11:01:05;102744.50;;;4.96;77.39
53514;BME280;39768;54.148;12.174;2023-01-28T11:05:17;102729.16;;;5.07;79.76
53514;BME280;39768;54.148;12.174;2023-01-28T11:09:23;102716.88;;;5.08;79.57
53514;BME280;39768;54.148;12.174;2023-01-28T11:13:26;102699.13;;;5.24;77.79
53514;BME280;39768;54.148;12.174;2023-01-28T11:17:32;102685.91;;;5.45;79.63
53514;BME280;39768;54.148;12.174;2023-01-28T11:21:34;102701.31;;;4.91;81.37
53514;BME280;39768;54.148;12.174;2023-01-28T11:25:36;102682.72;;;4.66;81.42
53514;BME280;39768;54.148;12.174;2023-01-28T11:29:39;102669.56;;;5.09;82.66
53514;BME280;39768;54.148;12.174;2023-01-28T11:37:49;102659.38;;;4.32;83.02
53514;BME280;39768;54.148;12.174;2023-01-28T11:41:51;102644.94;;;4.64;81.85
53514;BME280;39768;54.148;12.174;2023-01-28T11:59:29;102626.16;;;5.44;76.41
53514;BME280;39768;54.148;12.174;2023-01-28T12:04:00;102633.91;;;5.17;77.18
53514;BME280;39768;54.148;12.174;2023-01-28T12:08:25;102651.66;;;4.78;80.74
53514;BME280;39768;54.148;12.174;2023-01-28T12:16:50;102628.09;;;5.26;79.31
53514;BME280;39768;54.148;12.174;2023-01-28T12:25:31;102628.78;;;5.68;72.97
53514;BME280;39768;54.148;12.174;2023-01-28T12:29:48;102607.94;;;5.74;69.92
53514;BME280;39768;54.148;12.174;2023-01-28T12:34:27;102592.69;;;5.89;69.75
53514;BME280;39768;54.148;12.174;2023-01-28T12:43:04;102607.94;;;5.26;70.66
53514;BME280;39768;54.148;12.174;2023-01-28T12:47:17;102601.69;;;5.01;72.41
53514;BME280;39768;54.148;12.174;2023-01-28T12:51:24;102609.28;;;5.39;71.99
53514;BME280;39768;54.148;12.174;2023-01-28T12:59:43;102579.22;;;5.10;73.71
53514;BME280;39768;54.148;12.174;2023-01-28T13:04:03;102573.75;;;5.04;69.33
53514;BME280;39768;54.148;12.174;2023-01-28T13:08:12;102580.69;;;5.26;71.33
53514;BME280;39768;54.148;12.174;2023-01-28T13:12:17;102578.44;;;5.37;70.42
53514;BME280;39768;54.148;12.174;2023-01-28T13:16:20;102579.00;;;5.04;70.52
53514;BME280;39768;54.148;12.174;2023-01-28T13:20:47;102588.81;;;4.86;71.01
53514;BME280;39768;54.148;12.174;2023-01-28T13:24:49;102585.06;;;5.25;71.11
53514;BME280;39768;54.148;12.174;2023-01-28T13:28:53;102582.66;;;4.85;72.64
53514;BME280;39768;54.148;12.174;2023-01-28T13:32:57;102586.22;;;5.10;72.37
53514;BME280;39768;54.148;12.174;2023-01-28T13:37:02;102592.19;;;5.06;72.89
53514;BME280;39768;54.148;12.174;2023-01-28T13:41:06;102599.31;;;5.08;74.82
53514;BME280;39768;54.148;12.174;2023-01-28T13:45:28;102593.63;;;5.20;76.16
53514;BME280;39768;54.148;12.174;2023-01-28T13:49:39;102613.31;;;5.07;75.26
53514;BME280;39768;54.148;12.174;2023-01-28T13:53:58;102597.53;;;5.07;71.19
53514;BME280;39768;54.148;12.174;2023-01-28T14:06:19;102615.19;;;5.10;73.80
53514;BME280;39768;54.148;12.174;2023-01-28T14:15:02;102611.06;;;5.16;73.01
53514;BME280;39768;54.148;12.174;2023-01-28T14:19:12;102599.63;;;5.16;74.02
53514;BME280;39768;54.148;12.174;2023-01-28T14:23:20;102586.63;;;5.20;75.17
53514;BME280;39768;54.148;12.174;2023-01-28T14:27:34;102574.00;;;4.88;75.55
53514;BME280;39768;54.148;12.174;2023-01-28T14:31:38;102594.09;;;4.86;78.26
53514;BME280;39768;54.148;12.174;2023-01-28T14:35:44;102592.38;;;5.10;78.27
53514;BME280;39768;54.148;12.174;2023-01-28T14:39:57;102590.06;;;4.95;76.93
53514;BME280;39768;54.148;12.174;2023-01-28T14:43:59;102593.78;;;5.01;76.57
53514;BME280;39768;54.148;12.174;2023-01-28T14:48:20;102602.19;;;5.14;75.83
53514;BME280;39768;54.148;12.174;2023-01-28T14:52:42;102606.44;;;5.11;74.99
53514;BME280;39768;54.148;12.174;2023-01-28T15:01:22;102611.22;;;5.21;77.20
53514;BME280;39768;54.148;12.174;2023-01-28T15:05:26;102608.94;;;5.08;77.54
53514;BME280;39768;54.148;12.174;2023-01-28T15:09:28;102605.09;;;4.98;79.42
53514;BME280;39768;54.148;12.174;2023-01-28T15:13:35;102612.25;;;4.80;79.91
53514;BME280;39768;54.148;12.174;2023-01-28T15:17:38;102594.72;;;4.80;80.38
53514;BME280;39768;54.148;12.174;2023-01-28T15:21:42;102582.66;;;4.85;81.34
53514;BME280;39768;54.148;12.174;2023-01-28T15:25:44;102593.50;;;4.50;84.54
53514;BME280;39768;54.148;12.174;2023-01-28T15:29:54;102602.16;;;4.47;85.53
53514;BME280;39768;54.148;12.174;2023-01-28T15:34:09;102593.56;;;4.51;85.42
53514;BME280;39768;54.148;12.174;2023-01-28T15:38:12;102583.97;;;4.31;87.16
53514;BME280;39768;54.148;12.174;2023-01-28T15:42:18;102577.09;;;4.55;87.94
53514;BME280;39768;54.148;12.174;2023-01-28T15:46:21;102571.41;;;4.45;87.63
53514;BME280;39768;54.148;12.174;2023-01-28T15:50:24;102565.13;;;4.41;88.59
53514;BME280;39768;54.148;12.174;2023-01-28T15:54:26;102570.84;;;4.53;88.58
53514;BME280;39768;54.148;12.174;2023-01-28T15:58:30;102560.25;;;4.73;88.96
53514;BME280;39768;54.148;12.174;2023-01-28T16:02:42;102570.94;;;4.34;90.68
53514;BME280;39768;54.148;12.174;2023-01-28T16:06:44;102570.81;;;4.31;91.37
53514;BME280;39768;54.148;12.174;2023-01-28T16:10:51;102577.59;;;4.47;91.27
53514;BME280;39768;54.148;12.174;2023-01-28T16:14:55;102575.28;;;4.54;92.26
53514;BME280;39768;54.148;12.174;2023-01-28T16:19:00;102573.78;;;4.39;93.59
53514;BME280;39768;54.148;12.174;2023-01-28T16:23:17;102590.81;;;4.48;94.36
53514;BME280;39768;54.148;12.174;2023-01-28T16:27:25;102581.59;;;4.37;95.61
53514;BME280;39768;54.148;12.174;2023-01-28T16:31:28;102575.78;;;4.46;96.04
53514;BME280;39768;54.148;12.174;2023-01-28T16:35:29;102571.09;;;4.82;93.27
53514;BME280;39768;54.148;12.174;2023-01-28T16:39:51;102562.94;;;4.74;93.00
53514;BME280;39768;54.148;12.174;2023-01-28T16:43:53;102558.53;;;4.97;93.06
53514;BME280;39768;54.148;12.174;2023-01-28T16:47:54;102550.06;;;4.82;92.51
53514;BME280;39768;54.148;12.174;2023-01-28T16:51:56;102540.03;;;4.72;92.85
53514;BME280;39768;54.148;12.174;2023-01-28T16:55:58;102542.28;;;4.85;94.23
53514;BME280;39768;54.148;12.174;2023-01-28T17:00:00;102546.03;;;4.91;94.71
53514;BME280;39768;54.148;12.174;2023-01-28T17:04:02;102549.59;;;4.70;97.49
53514;BME280;39768;54.148;12.174;2023-01-28T17:08:12;102543.03;;;4.60;99.32
53514;BME280;39768;54.148;12.174;2023-01-28T17:12:14;102545.97;;;4.45;100.00
53514;BME280;39768;54.148;12.174;2023-01-28T17:16:16;102550.78;;;4.55;100.00
53514;BME280;39768;54.148;12.174;2023-01-28T17:20:18;102564.91;;;4.57;100.00
53514;BME280;39768;54.148;12.174;2023-01-28T17:24:19;102551.34;;;4.48;100.00
53514;BME280;39768;54.148;12.174;2023-01-28T17:28:21;102557.34;;;4.67;100.00
53514;BME280;39768;54.148;12.174;2023-01-28T17:32:23;102549.41;;;4.65;99.85
53514;BME280;39768;54.148;12.174;2023-01-28T17:36:25;102551.56;;;4.53;100.00
53514;BME280;39768;54.148;12.174;2023-01-28T17:40:27;102535.72;;;4.51;100.00
53514;BME280;39768;54.148;12.174;2023-01-28T17:44:28;102549.69;;;4.28;100.00
53514;BME280;39768;54.148;12.174;2023-01-28T17:48:30;102555.78;;;4.49;100.00
53514;BME280;39768;54.148;12.174;2023-01-28T17:52:31;102555.84;;;4.51;100.00
53514;BME280;39768;54.148;12.174;2023-01-28T17:56:33;102554.47;;;4.38;100.00
53514;BME280;39768;54.148;12.174;2023-01-28T18:00:34;102562.88;;;4.30;100.00
53514;BME280;39768;54.148;12.174;2023-01-28T18:04:37;102566.84;;;4.41;100.00
53514;BME280;39768;54.148;12.174;2023-01-28T18:08:39;102559.25;;;4.48;100.00
53514;BME280;39768;54.148;12.174;2023-01-28T18:12:41;102551.16;;;4.21;100.00
53514;BME280;39768;54.148;12.174;2023-01-28T18:16:42;102551.75;;;4.14;100.00
53514;BME280;39768;54.148;12.174;2023-01-28T18:20:44;102540.31;;;3.72;100.00
53514;BME280;39768;54.148;12.174;2023-01-28T18:24:45;102543.38;;;3.62;100.00
53514;BME280;39768;54.148;12.174;2023-01-28T18:28:47;102546.59;;;3.55;100.00
53514;BME280;39768;54.148;12.174;2023-01-28T18:32:49;102542.75;;;4.09;100.00
53514;BME280;39768;54.148;12.174;2023-01-28T18:36:51;102526.56;;;3.99;100.00
53514;BME280;39768;54.148;12.174;2023-01-28T18:40:54;102516.75;;;3.95;100.00
53514;BME280;39768;54.148;12.174;2023-01-28T18:44:55;102508.88;;;3.95;100.00
53514;BME280;39768;54.148;12.174;2023-01-28T18:48:57;102497.03;;;3.83;100.00
53514;BME280;39768;54.148;12.174;2023-01-28T18:52:59;102497.66;;;3.99;100.00
53514;BME280;39768;54.148;12.174;2023-01-28T18:57:00;102492.75;;;4.08;100.00
53514;BME280;39768;54.148;12.174;2023-01-28T19:01:08;102485.78;;;4.31;100.00
53514;BME280;39768;54.148;12.174;2023-01-28T19:05:10;102489.91;;;4.24;100.00
53514;BME280;39768;54.148;12.174;2023-01-28T19:09:14;102497.44;;;4.37;100.00
53514;BME280;39768;54.148;12.174;2023-01-28T19:13:16;102507.25;;;4.41;100.00
53514;BME280;39768;54.148;12.174;2023-01-28T19:17:17;102501.19;;;4.42;100.00
53514;BME280;39768;54.148;12.174;2023-01-28T19:21:19;102501.53;;;4.29;100.00
53514;BME280;39768;54.148;12.174;2023-01-28T19:25:21;102501.31;;;4.47;100.00
53514;BME280;39768;54.148;12.174;2023-01-28T19:29:22;102510.31;;;4.52;100.00
53514;BME280;39768;54.148;12.174;2023-01-28T19:33:26;102499.13;;;4.35;100.00
53514;BME280;39768;54.148;12.174;2023-01-28T19:37:27;102495.59;;;4.35;100.00
53514;BME280;39768;54.148;12.174;2023-01-28T19:41:29;102502.34;;;4.28;100.00
53514;BME280;39768;54.148;12.174;2023-01-28T19:45:30;102506.16;;;4.36;100.00
53514;BME280;39768;54.148;12.174;2023-01-28T19:49:32;102505.88;;;4.29;100.00
53514;BME280;39768;54.148;12.174;2023-01-28T19:53:35;102509.28;;;4.48;100.00
53514;BME280;39768;54.148;12.174;2023-01-28T19:57:36;102499.72;;;4.50;100.00
53514;BME280;39768;54.148;12.174;2023-01-28T20:01:38;102502.28;;;4.49;100.00
53514;BME280;39768;54.148;12.174;2023-01-28T20:05:40;102499.06;;;4.56;100.00
53514;BME280;39768;54.148;12.174;2023-01-28T20:09:41;102490.22;;;4.54;100.00
53514;BME280;39768;54.148;12.174;2023-01-28T20:13:46;102485.25;;;4.61;100.00
53514;BME280;39768;54.148;12.174;2023-01-28T20:17:48;102482.22;;;4.51;100.00
53514;BME280;39768;54.148;12.174;2023-01-28T20:21:50;102482.22;;;4.73;100.00
53514;BME280;39768;54.148;12.174;2023-01-28T20:25:54;102464.63;;;4.72;100.00
53514;BME280;39768;54.148;12.174;2023-01-28T20:29:56;102461.63;;;4.63;100.00
53514;BME280;39768;54.148;12.174;2023-01-28T20:33:58;102451.78;;;4.35;100.00
53514;BME280;39768;54.148;12.174;2023-01-28T20:38:00;102446.31;;;4.29;100.00
53514;BME280;39768;54.148;12.174;2023-01-28T20:42:04;102443.38;;;4.21;100.00
53514;BME280;39768;54.148;12.174;2023-01-28T20:46:14;102453.22;;;4.49;100.00
53514;BME280;39768;54.148;12.174;2023-01-28T20:50:16;102451.28;;;4.44;100.00
53514;BME280;39768;54.148;12.174;2023-01-28T20:54:18;102448.69;;;4.45;100.00
53514;BME280;39768;54.148;12.174;2023-01-28T20:58:21;102444.00;;;4.16;100.00
53514;BME280;39768;54.148;12.174;2023-01-28T21:02:22;102448.00;;;4.27;100.00
53514;BME280;39768;54.148;12.174;2023-01-28T21:06:24;102451.50;;;4.50;100.00
53514;BME280;39768;54.148;12.174;2023-01-28T21:10:25;102456.81;;;4.51;100.00
53514;BME280;39768;54.148;12.174;2023-01-28T21:14:27;102459.13;;;4.66;100.00
53514;BME280;39768;54.148;12.174;2023-01-28T21:18:29;102455.34;;;4.82;100.00
53514;BME280;39768;54.148;12.174;2023-01-28T21:22:30;102444.41;;;4.95;100.00
53514;BME280;39768;54.148;12.174;2023-01-28T21:26:32;102441.22;;;4.56;100.00
53514;BME280;39768;54.148;12.174;2023-01-28T21:30:33;102442.00;;;4.53;100.00
53514;BME280;39768;54.148;12.174;2023-01-28T21:34:35;102444.56;;;4.52;100.00
53514;BME280;39768;54.148;12.174;2023-01-28T21:38:36;102448.03;;;4.51;100.00
53514;BME280;39768;54.148;12.174;2023-01-28T21:42:38;102443.84;;;4.56;100.00
53514;BME280;39768;54.148;12.174;2023-01-28T21:46:39;102440.97;;;4.50;100.00
53514;BME280;39768;54.148;12.174;2023-01-28T21:50:41;102445.59;;;4.79;100.00
53514;BME280;39768;54.148;12.174;2023-01-28T21:55:01;102444.34;;;4.93;100.00
53514;BME280;39768;54.148;12.174;2023-01-28T21:59:03;102445.88;;;4.87;100.00
53514;BME280;39768;54.148;12.174;2023-01-28T22:03:28;102440.63;;;4.87;100.00
53514;BME280;39768;54.148;12.174;2023-01-28T22:07:30;102437.63;;;4.78;100.00
53514;BME280;39768;54.148;12.174;2023-01-28T22:11:31;102441.00;;;4.97;100.00
53514;BME280;39768;54.148;12.174;2023-01-28T22:15:33;102442.13;;;5.04;100.00
53514;BME280;39768;54.148;12.174;2023-01-28T22:19:35;102431.50;;;5.01;100.00
53514;BME280;39768;54.148;12.174;2023-01-28T22:23:37;102435.22;;;5.08;100.00
53514;BME280;39768;54.148;12.174;2023-01-28T22:27:39;102437.16;;;4.88;100.00
53514;BME280;39768;54.148;12.174;2023-01-28T22:31:41;102435.16;;;5.06;100.00
53514;BME280;39768;54.148;12.174;2023-01-28T22:35:43;102423.72;;;5.06;100.00